• Join FlightAware (Why Join?)
  • Login
  • US Flag 
02:21AM EST


 

Airport Tracker/Info


-or-


 

Live Flight TrackerFlight Track Log ✈ EJA929 ✈ 23-May-2013 ✈ KSAT - KDAL

Flight Track Log - Related Links

Times and Time Zones

All times are in EDT time to prevent confusion due to time zone crossing. See the EJA929 flight status page for this flight to view local times or setup timezone preferences in your user account.

Time Position Orientation Groundspeed Altitude Reporting Facility
EDT Latitude Longitude Course Direction KTS MPH feet Rate Location/Type
11:11PM 29.5581 -98.4381 19° North 197 227 2,900  Level Houston Center
11:12PM 29.6253 -98.4114 19° North 259 298 7,200 4,080 Climbing Houston Center
11:13PM 29.7075 -98.4083 North 295 339 11,500 2,880 Climbing Houston Center
11:14PM 29.7978 -98.4053 North 325 374 13,100 2,040 Climbing Houston Center
11:15PM 29.9031 -98.4014 North 348 400 15,700 2,400 Climbing Houston Center
11:16PM 30.0003 -98.3972 North 348 400 18,000 2,160 Climbing Houston Center
11:17PM 30.0942 -98.3928 North 354 407 20,200 2,220 Climbing Houston Center
11:18PM 30.2025 -98.3783 North 375 432 22,600 2,160 Climbing Houston Center
11:19PM 30.3078 -98.3625 North 387 445 24,600 1,140 Climbing Houston Center
11:20PM 30.4283 -98.3456 North 422 486 25,000 180 Climbing Houston Center
11:21PM 30.5556 -98.3267 North 449 517 25,000  Level Houston Center
11:22PM 30.6833 -98.3081 North 454 522 25,000  Level Houston Center
11:23PM 30.8081 -98.2894 North 448 516 25,000  Level Houston Center
11:24PM 30.9306 -98.2603 12° North 444 511 25,000  Level Houston Center
11:25PM 31.0517 -98.2267 13° North 442 509 25,000  Level Houston Center
11:26PM 31.1725 -98.1928 13° North 441 507 25,000  Level Houston Center
11:27PM 31.2961 -98.1708 North 441 507 25,000  Level Houston Center
11:28PM 31.4158 -98.1756 358° North 428 493 25,000  Level Houston Center
11:29PM 31.5336 -98.1592 North 424 488 25,000  Level Houston Center
11:31PM 31.6394 -98.0892 29° Northeast 409 471 25,000  Level Fort Worth Center
11:32PM 31.7422 -98.0192 30° Northeast 415 478 25,000 -120 Level Fort Worth Center
11:33PM 31.8406 -97.9514 30° Northeast 420 483 24,800 -1,320 Descending Fort Worth Center
11:34PM 31.9494 -97.8761 30° Northeast 437 503 22,400 -2,640 Descending Fort Worth Center
11:35PM 32.0686 -97.7908 31° Northeast 449 517 19,600 -2,400 Descending Fort Worth Center
11:36PM 32.1692 -97.7225 30° Northeast 436 502 17,600 -1,920 Descending Fort Worth Center
11:37PM 32.2506 -97.6614 32° Northeast 400 460 15,800 -1,920 Descending Fort Worth Center
11:38PM 32.3406 -97.5978 31° Northeast 355 409 13,800 -1,800 Descending Fort Worth Center
11:39PM 32.4094 -97.5511 30° Northeast 325 374 12,200 -1,440 Descending Fort Worth Center
11:40PM 32.4867 -97.4872 35° Northeast 303 349 11,000 -600 Descending Fort Worth Center
11:41PM 32.5411 -97.4208 46° Northeast 303 349 11,000  Level Fort Worth Center
11:42PM 32.6058 -97.3419 46° Northeast 303 349 11,000  Level Fort Worth Center
11:43PM 32.6581 -97.2803 45° Northeast 295 339 11,000  Level Fort Worth Center
11:44PM 32.7183 -97.2061 46° Northeast 290 334 11,000  Level Fort Worth Center
11:45PM 32.7872 -97.1736 22° Northeast 270 311 11,000 -1,080 Level Fort Worth Center
11:46PM 32.8603 -97.1783 357° North 254 292 8,900 -2,340 Descending Fort Worth Center
11:46PM 32.9000 -97.1167 52° Northeast 265 305 6,500 -2,280 Descending Dallas / Fort Worth TRACON
11:47PM 32.9333 -97.0500 59° Northeast 241 277 4,900 -1,500 Descending Dallas / Fort Worth TRACON
11:48PM 32.9500 -97.0000 68° East 190 219 4,000 -1,560 Descending Dallas / Fort Worth TRACON
11:49PM 32.9333 -96.9333 107° East 174 200 2,000 -1,200 Descending Dallas / Fort Worth TRACON
11:50PM 32.9000 -96.9000 140° Southeast 145 167 1,600 -540 Descending Dallas / Fort Worth TRACON
11:51PM 32.8667 -96.8667 140° Southeast 125 144 900 -660 Descending Dallas / Fort Worth TRACON
11:53PM 32.8471 -96.8518 79° East  Level Estimated